sensor_id;sensor_type;location;lat;lon;timestamp;noise_LAeq;noise_LA_min;noise_LA_max;noise_LA01;noise_LA95
79288;Laerm;68737;53.946;27.634;2023-05-29T00:01:10;41.790695;37.798943;53.539902;;
79288;Laerm;68737;53.946;27.634;2023-05-29T00:03:40;42.954994;38.069382;54.403725;;
79288;Laerm;68737;53.946;27.634;2023-05-29T00:06:10;40.845688;38.164986;47.859314;;
79288;Laerm;68737;53.946;27.634;2023-05-29T00:08:40;43.838562;38.062904;54.381477;;
79288;Laerm;68737;53.946;27.634;2023-05-29T00:11:10;43.146164;38.461121;53.929993;;
79288;Laerm;68737;53.946;27.634;2023-05-29T00:13:40;40.492332;38.041130;53.292564;;
79288;Laerm;68737;53.946;27.634;2023-05-29T00:16:10;40.923187;37.958344;52.432999;;
79288;Laerm;68737;53.946;27.634;2023-05-29T00:18:40;44.127220;38.118126;57.274712;;
79288;Laerm;68737;53.946;27.634;2023-05-29T00:21:11;40.551567;37.991402;44.500023;;
79288;Laerm;68737;53.946;27.634;2023-05-29T00:23:40;40.654068;38.356567;48.780388;;
79288;Laerm;68737;53.946;27.634;2023-05-29T00:26:10;40.831963;37.557945;44.622093;;
79288;Laerm;68737;53.946;27.634;2023-05-29T00:28:40;43.787254;38.954239;57.403023;;
79288;Laerm;68737;53.946;27.634;2023-05-29T00:31:10;43.942612;40.418457;47.660851;;
79288;Laerm;68737;53.946;27.634;2023-05-29T00:33:40;57.870155;40.968887;68.781021;;
79288;Laerm;68737;53.946;27.634;2023-05-29T00:36:10;41.344147;38.315727;46.911858;;
79288;Laerm;68737;53.946;27.634;2023-05-29T00:38:40;41.111053;38.131638;47.322998;;
79288;Laerm;68737;53.946;27.634;2023-05-29T00:43:40;45.582375;38.612259;60.082005;;
79288;Laerm;68737;53.946;27.634;2023-05-29T00:46:10;41.144691;38.088112;49.285980;;
79288;Laerm;68737;53.946;27.634;2023-05-29T00:48:41;48.847588;38.125999;62.960621;;
79288;Laerm;68737;53.946;27.634;2023-05-29T00:51:10;42.008286;38.610069;50.132370;;
79288;Laerm;68737;53.946;27.634;2023-05-29T00:53:40;48.924393;38.965401;62.182674;;
79288;Laerm;68737;53.946;27.634;2023-05-29T00:56:10;44.303596;38.805847;55.629860;;
79288;Laerm;68737;53.946;27.634;2023-05-29T00:58:40;44.867798;38.741798;58.202393;;
79288;Laerm;68737;53.946;27.634;2023-05-29T01:01:10;45.170692;39.111382;54.962502;;
79288;Laerm;68737;53.946;27.634;2023-05-29T01:03:40;41.941406;38.203033;52.056206;;
79288;Laerm;68737;53.946;27.634;2023-05-29T01:06:10;50.928215;38.710976;66.347443;;
79288;Laerm;68737;53.946;27.634;2023-05-29T01:08:40;48.769440;38.334160;62.243580;;
79288;Laerm;68737;53.946;27.634;2023-05-29T01:13:40;45.743134;39.963516;58.843132;;
79288;Laerm;68737;53.946;27.634;2023-05-29T01:28:41;48.843407;38.791023;63.015148;;
79288;Laerm;68737;53.946;27.634;2023-05-29T01:31:10;45.108665;38.685600;61.771183;;
79288;Laerm;68737;53.946;27.634;2023-05-29T01:33:40;44.000420;39.765007;59.412628;;
79288;Laerm;68737;53.946;27.634;2023-05-29T01:36:10;47.190628;38.624451;63.373779;;
79288;Laerm;68737;53.946;27.634;2023-05-29T01:38:40;46.707603;39.239594;63.691761;;
79288;Laerm;68737;53.946;27.634;2023-05-29T01:41:10;45.127563;38.672409;58.480286;;
79288;Laerm;68737;53.946;27.634;2023-05-29T01:43:40;50.056664;38.837845;63.909660;;
79288;Laerm;68737;53.946;27.634;2023-05-29T01:46:11;46.514809;38.374435;62.992752;;
79288;Laerm;68737;53.946;27.634;2023-05-29T01:51:10;47.210960;38.254654;65.154762;;
79288;Laerm;68737;53.946;27.634;2023-05-29T01:53:40;45.813118;39.165672;62.986725;;
79288;Laerm;68737;53.946;27.634;2023-05-29T01:56:10;52.526558;39.192146;68.831963;;
79288;Laerm;68737;53.946;27.634;2023-05-29T01:58:40;51.353058;38.643333;68.256012;;
79288;Laerm;68737;53.946;27.634;2023-05-29T02:01:10;49.176125;40.787903;65.801422;;
79288;Laerm;68737;53.946;27.634;2023-05-29T02:03:40;48.557060;39.321396;60.086159;;
79288;Laerm;68737;53.946;27.634;2023-05-29T02:06:10;45.976402;39.148720;59.858154;;
79288;Laerm;68737;53.946;27.634;2023-05-29T02:08:40;48.056450;38.284508;66.574760;;
79288;Laerm;68737;53.946;27.634;2023-05-29T02:11:10;52.566597;40.114418;69.170639;;
79288;Laerm;68737;53.946;27.634;2023-05-29T02:13:41;48.623894;39.525101;62.075554;;
79288;Laerm;68737;53.946;27.634;2023-05-29T02:16:10;49.761002;40.181862;62.245106;;
79288;Laerm;68737;53.946;27.634;2023-05-29T02:18:40;47.048782;40.677528;54.314110;;
79288;Laerm;68737;53.946;27.634;2023-05-29T02:21:10;47.869904;39.265648;57.800217;;
79288;Laerm;68737;53.946;27.634;2023-05-29T02:23:40;49.564560;41.815323;62.939892;;
79288;Laerm;68737;53.946;27.634;2023-05-29T02:26:11;47.938507;40.174538;61.746029;;
79288;Laerm;68737;53.946;27.634;2023-05-29T02:28:40;49.578201;40.624107;60.886280;;
79288;Laerm;68737;53.946;27.634;2023-05-29T02:31:10;48.148300;41.345528;58.741013;;
79288;Laerm;68737;53.946;27.634;2023-05-29T02:33:40;47.372917;40.763046;59.331902;;
79288;Laerm;68737;53.946;27.634;2023-05-29T02:36:10;49.217049;41.111069;62.103058;;
79288;Laerm;68737;53.946;27.634;2023-05-29T02:38:40;47.917183;39.950760;64.400505;;
79288;Laerm;68737;53.946;27.634;2023-05-29T02:41:10;50.529816;40.398087;65.007858;;
79288;Laerm;68737;53.946;27.634;2023-05-29T02:43:40;48.176788;41.464607;59.574287;;
79288;Laerm;68737;53.946;27.634;2023-05-29T02:46:10;48.747086;40.725220;63.782093;;
79288;Laerm;68737;53.946;27.634;2023-05-29T02:48:40;47.508858;40.756020;59.851051;;
79288;Laerm;68737;53.946;27.634;2023-05-29T02:51:10;49.753792;41.403603;73.721428;;
79288;Laerm;68737;53.946;27.634;2023-05-29T02:53:40;47.530563;41.042091;58.647171;;
79288;Laerm;68737;53.946;27.634;2023-05-29T02:56:10;57.298004;41.212135;73.909683;;
79288;Laerm;68737;53.946;27.634;2023-05-29T02:58:40;49.660416;41.763321;58.834526;;
79288;Laerm;68737;53.946;27.634;2023-05-29T03:01:10;48.923927;42.159950;60.317272;;
79288;Laerm;68737;53.946;27.634;2023-05-29T03:03:40;48.566574;41.765106;63.142361;;
79288;Laerm;68737;53.946;27.634;2023-05-29T03:06:10;47.453362;41.989052;58.528374;;
79288;Laerm;68737;53.946;27.634;2023-05-29T03:08:40;50.457809;41.993744;63.798054;;
79288;Laerm;68737;53.946;27.634;2023-05-29T03:11:10;52.198845;43.300560;62.797737;;
79288;Laerm;68737;53.946;27.634;2023-05-29T03:13:40;51.628334;43.673744;60.325092;;
79288;Laerm;68737;53.946;27.634;2023-05-29T03:16:10;52.228210;43.144623;65.034775;;
79288;Laerm;68737;53.946;27.634;2023-05-29T03:18:40;50.879135;42.950859;60.979446;;
79288;Laerm;68737;53.946;27.634;2023-05-29T03:21:10;48.253693;42.451271;58.246384;;
79288;Laerm;68737;53.946;27.634;2023-05-29T03:23:40;51.052650;42.908691;61.072502;;
79288;Laerm;68737;53.946;27.634;2023-05-29T03:26:10;51.017441;41.864288;62.598385;;
79288;Laerm;68737;53.946;27.634;2023-05-29T03:28:40;52.082199;43.314812;62.372513;;
79288;Laerm;68737;53.946;27.634;2023-05-29T03:31:10;50.081497;42.850563;65.097824;;
79288;Laerm;68737;53.946;27.634;2023-05-29T03:33:40;51.353081;42.109810;64.921951;;
79288;Laerm;68737;53.946;27.634;2023-05-29T03:36:10;54.073158;43.398079;69.018234;;
79288;Laerm;68737;53.946;27.634;2023-05-29T03:38:40;51.694458;42.778107;65.797165;;
79288;Laerm;68737;53.946;27.634;2023-05-29T03:41:10;51.959511;43.342346;69.531540;;
79288;Laerm;68737;53.946;27.634;2023-05-29T03:43:40;51.559120;42.333763;62.574390;;
79288;Laerm;68737;53.946;27.634;2023-05-29T03:46:10;49.349770;43.083481;61.171806;;
79288;Laerm;68737;53.946;27.634;2023-05-29T03:48:40;47.864174;41.532852;58.283165;;
79288;Laerm;68737;53.946;27.634;2023-05-29T03:51:10;51.993073;42.607857;63.929050;;
79288;Laerm;68737;53.946;27.634;2023-05-29T03:53:40;51.419334;41.999626;65.681168;;
79288;Laerm;68737;53.946;27.634;2023-05-29T03:56:10;51.087120;41.732010;65.325020;;
79288;Laerm;68737;53.946;27.634;2023-05-29T03:58:40;51.750702;43.433304;59.029747;;
79288;Laerm;68737;53.946;27.634;2023-05-29T04:01:10;52.064384;41.970856;63.210609;;
79288;Laerm;68737;53.946;27.634;2023-05-29T04:03:40;51.009003;43.715546;61.252773;;
79288;Laerm;68737;53.946;27.634;2023-05-29T04:06:10;53.186920;43.032143;71.727737;;
79288;Laerm;68737;53.946;27.634;2023-05-29T04:08:40;56.396957;45.252533;86.502373;;
79288;Laerm;68737;53.946;27.634;2023-05-29T04:11:10;51.265411;42.807861;71.669815;;
79288;Laerm;68737;53.946;27.634;2023-05-29T04:13:40;51.497360;44.384781;63.798168;;
79288;Laerm;68737;53.946;27.634;2023-05-29T04:16:10;54.144569;43.724220;64.121887;;
79288;Laerm;68737;53.946;27.634;2023-05-29T04:18:40;53.817368;44.596405;65.482880;;
79288;Laerm;68737;53.946;27.634;2023-05-29T04:21:10;56.477974;45.528831;69.719269;;
79288;Laerm;68737;53.946;27.634;2023-05-29T04:23:40;56.329124;45.616920;68.003761;;
79288;Laerm;68737;53.946;27.634;2023-05-29T04:26:10;53.264236;44.119995;64.330368;;
79288;Laerm;68737;53.946;27.634;2023-05-29T04:28:40;53.994240;46.911011;64.689743;;
79288;Laerm;68737;53.946;27.634;2023-05-29T04:31:10;54.231232;45.640717;67.276535;;
79288;Laerm;68737;53.946;27.634;2023-05-29T04:33:40;56.396622;45.553169;66.087234;;
79288;Laerm;68737;53.946;27.634;2023-05-29T04:36:10;56.596741;46.500282;67.795654;;
79288;Laerm;68737;53.946;27.634;2023-05-29T04:38:40;52.618721;44.691299;61.887211;;
79288;Laerm;68737;53.946;27.634;2023-05-29T04:41:10;54.567184;45.117584;63.904270;;
79288;Laerm;68737;53.946;27.634;2023-05-29T04:43:40;57.933701;46.795372;70.672882;;
79288;Laerm;68737;53.946;27.634;2023-05-29T04:46:10;52.752068;45.089714;66.364395;;
79288;Laerm;68737;53.946;27.634;2023-05-29T04:48:40;54.680908;46.673004;67.217819;;
79288;Laerm;68737;53.946;27.634;2023-05-29T04:51:10;53.848450;44.266228;61.141476;;
79288;Laerm;68737;53.946;27.634;2023-05-29T04:53:40;56.333229;45.146698;68.302826;;
79288;Laerm;68737;53.946;27.634;2023-05-29T04:56:10;59.448887;43.869888;74.311737;;
79288;Laerm;68737;53.946;27.634;2023-05-29T04:58:40;60.648552;48.895988;81.521027;;
79288;Laerm;68737;53.946;27.634;2023-05-29T05:01:10;57.504257;45.363220;71.051544;;
79288;Laerm;68737;53.946;27.634;2023-05-29T05:03:40;55.018250;44.747169;70.511864;;
79288;Laerm;68737;53.946;27.634;2023-05-29T05:06:10;53.494278;44.655716;63.162594;;
79288;Laerm;68737;53.946;27.634;2023-05-29T05:08:40;54.627472;46.240944;66.322868;;
79288;Laerm;68737;53.946;27.634;2023-05-29T05:11:10;54.976898;46.496613;62.121330;;
79288;Laerm;68737;53.946;27.634;2023-05-29T05:13:40;56.413681;48.822060;72.369331;;
79288;Laerm;68737;53.946;27.634;2023-05-29T05:16:10;54.491066;44.884567;61.663937;;
79288;Laerm;68737;53.946;27.634;2023-05-29T05:18:40;55.023102;43.370399;65.698624;;
79288;Laerm;68737;53.946;27.634;2023-05-29T05:21:10;56.901314;45.225349;67.331528;;
79288;Laerm;68737;53.946;27.634;2023-05-29T05:23:40;55.252106;45.518578;71.398575;;
79288;Laerm;68737;53.946;27.634;2023-05-29T05:26:10;55.203690;46.755981;62.478928;;
79288;Laerm;68737;53.946;27.634;2023-05-29T05:28:40;55.257751;47.617569;61.591663;;
79288;Laerm;68737;53.946;27.634;2023-05-29T05:31:10;55.767822;42.900276;63.823505;;
79288;Laerm;68737;53.946;27.634;2023-05-29T05:33:40;55.765038;46.274696;64.812546;;
79288;Laerm;68737;53.946;27.634;2023-05-29T05:36:10;56.300842;45.603798;66.628693;;
79288;Laerm;68737;53.946;27.634;2023-05-29T05:38:40;57.795860;48.546883;68.611366;;
79288;Laerm;68737;53.946;27.634;2023-05-29T05:41:10;56.851044;46.944572;70.024750;;
79288;Laerm;68737;53.946;27.634;2023-05-29T05:43:40;57.859047;46.587135;70.493484;;
79288;Laerm;68737;53.946;27.634;2023-05-29T05:46:10;59.558727;49.561829;70.443718;;
79288;Laerm;68737;53.946;27.634;2023-05-29T05:48:40;57.710167;49.396721;67.022217;;
79288;Laerm;68737;53.946;27.634;2023-05-29T05:51:10;55.229515;48.825172;68.945824;;
79288;Laerm;68737;53.946;27.634;2023-05-29T05:53:40;54.482979;46.897316;62.157845;;
79288;Laerm;68737;53.946;27.634;2023-05-29T05:56:10;56.147896;47.488609;66.257919;;
79288;Laerm;68737;53.946;27.634;2023-05-29T05:58:40;54.915451;44.574745;61.389397;;
79288;Laerm;68737;53.946;27.634;2023-05-29T06:01:10;55.922073;46.008949;66.940369;;
79288;Laerm;68737;53.946;27.634;2023-05-29T06:03:40;54.590752;43.094498;62.785698;;
79288;Laerm;68737;53.946;27.634;2023-05-29T06:06:10;54.090141;43.577820;61.768272;;
79288;Laerm;68737;53.946;27.634;2023-05-29T06:08:40;55.894409;44.697441;64.568558;;
79288;Laerm;68737;53.946;27.634;2023-05-29T06:11:10;55.181580;44.503937;63.315708;;
79288;Laerm;68737;53.946;27.634;2023-05-29T06:13:40;54.439209;44.862877;61.882645;;
79288;Laerm;68737;53.946;27.634;2023-05-29T06:16:10;54.902679;42.941109;67.972397;;
79288;Laerm;68737;53.946;27.634;2023-05-29T06:18:40;55.627129;44.178406;66.146790;;
79288;Laerm;68737;53.946;27.634;2023-05-29T06:21:11;55.326538;47.493561;66.452690;;
79288;Laerm;68737;53.946;27.634;2023-05-29T06:23:40;55.544128;44.365364;63.607822;;
79288;Laerm;68737;53.946;27.634;2023-05-29T06:26:10;55.582214;45.899757;66.688705;;
79288;Laerm;68737;53.946;27.634;2023-05-29T06:28:40;56.844742;44.304535;70.240265;;
79288;Laerm;68737;53.946;27.634;2023-05-29T06:31:10;61.393703;53.130547;73.915207;;
79288;Laerm;68737;53.946;27.634;2023-05-29T06:33:40;60.326946;50.534424;73.638000;;
79288;Laerm;68737;53.946;27.634;2023-05-29T06:36:10;58.283768;48.052963;71.117172;;
79288;Laerm;68737;53.946;27.634;2023-05-29T06:38:40;56.216049;47.077583;64.637680;;
79288;Laerm;68737;53.946;27.634;2023-05-29T06:41:10;60.365906;50.608986;67.313141;;
79288;Laerm;68737;53.946;27.634;2023-05-29T06:43:40;55.389938;43.035538;68.638824;;
79288;Laerm;68737;53.946;27.634;2023-05-29T06:46:10;54.934189;44.180489;65.276657;;
79288;Laerm;68737;53.946;27.634;2023-05-29T06:48:40;54.740166;44.189613;68.500427;;
79288;Laerm;68737;53.946;27.634;2023-05-29T06:51:10;55.974670;42.607399;70.909653;;
79288;Laerm;68737;53.946;27.634;2023-05-29T06:53:40;53.734482;42.667877;61.395157;;
79288;Laerm;68737;53.946;27.634;2023-05-29T06:56:10;53.242607;42.646202;68.199600;;
79288;Laerm;68737;53.946;27.634;2023-05-29T06:58:40;55.589294;46.754196;61.935879;;
79288;Laerm;68737;53.946;27.634;2023-05-29T07:01:10;55.733841;46.775154;62.776207;;
79288;Laerm;68737;53.946;27.634;2023-05-29T07:03:40;54.541412;45.308563;61.822372;;
79288;Laerm;68737;53.946;27.634;2023-05-29T07:06:10;67.699371;44.990616;86.670013;;
79288;Laerm;68737;53.946;27.634;2023-05-29T07:08:40;69.822952;62.771099;85.807831;;
79288;Laerm;68737;53.946;27.634;2023-05-29T07:11:10;66.723953;60.119461;83.221069;;
79288;Laerm;68737;53.946;27.634;2023-05-29T07:13:40;63.936966;52.710144;77.791176;;
79288;Laerm;68737;53.946;27.634;2023-05-29T07:16:10;57.205460;47.865891;63.639706;;
79288;Laerm;68737;53.946;27.634;2023-05-29T07:18:40;56.818855;48.970978;68.941200;;
79288;Laerm;68737;53.946;27.634;2023-05-29T07:21:10;56.507141;48.386917;69.050507;;
79288;Laerm;68737;53.946;27.634;2023-05-29T07:23:40;54.612076;45.001869;69.144913;;
79288;Laerm;68737;53.946;27.634;2023-05-29T07:26:10;54.320335;43.612770;66.530960;;
79288;Laerm;68737;53.946;27.634;2023-05-29T07:28:40;53.920181;44.232170;65.596924;;
79288;Laerm;68737;53.946;27.634;2023-05-29T07:31:10;54.310814;45.299507;63.709751;;
79288;Laerm;68737;53.946;27.634;2023-05-29T07:33:40;54.427032;45.742844;64.807190;;
79288;Laerm;68737;53.946;27.634;2023-05-29T07:36:10;53.295975;44.127289;63.592609;;
79288;Laerm;68737;53.946;27.634;2023-05-29T07:38:40;54.237289;44.948158;66.049858;;
79288;Laerm;68737;53.946;27.634;2023-05-29T07:41:10;54.426460;43.473381;69.611618;;
79288;Laerm;68737;53.946;27.634;2023-05-29T07:43:40;54.558945;44.107918;66.157776;;
79288;Laerm;68737;53.946;27.634;2023-05-29T07:46:10;55.254143;44.078171;65.533752;;
79288;Laerm;68737;53.946;27.634;2023-05-29T07:48:40;53.118759;42.182022;64.734795;;
79288;Laerm;68737;53.946;27.634;2023-05-29T07:51:10;53.759193;41.861183;62.449596;;
79288;Laerm;68737;53.946;27.634;2023-05-29T07:53:40;54.997482;42.213509;72.155563;;
79288;Laerm;68737;53.946;27.634;2023-05-29T07:56:10;54.980057;43.383316;66.018486;;
79288;Laerm;68737;53.946;27.634;2023-05-29T07:58:40;52.316254;41.615448;63.225586;;
79288;Laerm;68737;53.946;27.634;2023-05-29T08:01:10;59.551373;43.620888;77.033684;;
79288;Laerm;68737;53.946;27.634;2023-05-29T08:03:41;55.687553;43.671425;66.642303;;
79288;Laerm;68737;53.946;27.634;2023-05-29T08:06:10;57.316566;42.003029;68.121590;;
79288;Laerm;68737;53.946;27.634;2023-05-29T08:08:39;55.490555;41.535095;68.763161;;
79288;Laerm;68737;53.946;27.634;2023-05-29T08:11:10;52.825424;41.478287;64.123505;;
79288;Laerm;68737;53.946;27.634;2023-05-29T08:13:40;52.799644;41.318802;61.259678;;
79288;Laerm;68737;53.946;27.634;2023-05-29T08:16:10;54.580856;42.811340;68.571938;;
79288;Laerm;68737;53.946;27.634;2023-05-29T08:18:39;54.117020;44.035324;63.057266;;
79288;Laerm;68737;53.946;27.634;2023-05-29T08:21:10;53.676643;44.554802;64.018433;;
79288;Laerm;68737;53.946;27.634;2023-05-29T08:23:39;51.842842;42.972588;66.003555;;
79288;Laerm;68737;53.946;27.634;2023-05-29T08:26:09;55.979050;42.875893;67.288437;;
79288;Laerm;68737;53.946;27.634;2023-05-29T08:28:39;53.617310;43.249161;62.214539;;
79288;Laerm;68737;53.946;27.634;2023-05-29T08:31:09;58.087616;45.919655;70.384644;;
79288;Laerm;68737;53.946;27.634;2023-05-29T08:33:39;55.187950;42.391060;65.517334;;
79288;Laerm;68737;53.946;27.634;2023-05-29T08:36:10;54.423981;43.770668;63.641171;;
79288;Laerm;68737;53.946;27.634;2023-05-29T08:38:39;53.399300;43.253143;63.103603;;
79288;Laerm;68737;53.946;27.634;2023-05-29T08:41:10;53.864281;44.771248;66.077202;;
79288;Laerm;68737;53.946;27.634;2023-05-29T08:43:39;55.436081;44.796555;67.457489;;
79288;Laerm;68737;53.946;27.634;2023-05-29T08:46:09;57.198692;44.601807;73.388649;;
79288;Laerm;68737;53.946;27.634;2023-05-29T08:48:39;56.930229;43.874992;68.534958;;
79288;Laerm;68737;53.946;27.634;2023-05-29T08:51:09;54.997551;41.339394;65.824371;;
79288;Laerm;68737;53.946;27.634;2023-05-29T08:53:39;56.802193;44.657829;65.788239;;
79288;Laerm;68737;53.946;27.634;2023-05-29T08:56:09;52.218666;43.386261;61.927315;;
79288;Laerm;68737;53.946;27.634;2023-05-29T08:58:39;54.275391;43.339294;74.724274;;
79288;Laerm;68737;53.946;27.634;2023-05-29T09:01:09;55.291176;44.782387;66.223892;;
79288;Laerm;68737;53.946;27.634;2023-05-29T09:03:39;53.786888;44.059196;60.996304;;
79288;Laerm;68737;53.946;27.634;2023-05-29T09:06:09;55.633163;44.805611;67.938377;;
79288;Laerm;68737;53.946;27.634;2023-05-29T09:08:39;54.122398;46.327057;67.700974;;
79288;Laerm;68737;53.946;27.634;2023-05-29T09:11:09;53.548775;44.907402;60.462864;;
79288;Laerm;68737;53.946;27.634;2023-05-29T09:13:39;52.013901;42.564598;66.978653;;
79288;Laerm;68737;53.946;27.634;2023-05-29T09:16:09;57.794243;43.677399;67.038696;;
79288;Laerm;68737;53.946;27.634;2023-05-29T09:18:39;54.231148;42.176094;64.498856;;
79288;Laerm;68737;53.946;27.634;2023-05-29T09:21:09;53.411385;43.325371;60.904823;;
79288;Laerm;68737;53.946;27.634;2023-05-29T09:23:39;53.562469;41.718727;67.322006;;
79288;Laerm;68737;53.946;27.634;2023-05-29T09:26:09;54.328331;42.575706;63.445354;;
79288;Laerm;68737;53.946;27.634;2023-05-29T09:28:39;52.790558;43.319946;63.173973;;
79288;Laerm;68737;53.946;27.634;2023-05-29T09:33:46;53.748505;43.861053;63.318039;;
79288;Laerm;68737;53.946;27.634;2023-05-29T09:36:10;53.653664;42.201485;65.348183;;
79288;Laerm;68737;53.946;27.634;2023-05-29T09:38:39;54.776398;44.331940;70.046402;;
79288;Laerm;68737;53.946;27.634;2023-05-29T09:41:09;57.068596;41.583488;75.037506;;
79288;Laerm;68737;53.946;27.634;2023-05-29T09:43:39;56.190559;43.962967;68.951889;;
79288;Laerm;68737;53.946;27.634;2023-05-29T09:46:09;54.868195;43.980293;66.954498;;
79288;Laerm;68737;53.946;27.634;2023-05-29T09:48:39;55.710205;45.756241;65.340790;;
79288;Laerm;68737;53.946;27.634;2023-05-29T09:53:39;52.805061;44.621506;61.536228;;
79288;Laerm;68737;53.946;27.634;2023-05-29T09:56:09;52.653648;45.180862;64.149689;;
79288;Laerm;68737;53.946;27.634;2023-05-29T09:58:39;57.754509;43.678993;71.134712;;
79288;Laerm;68737;53.946;27.634;2023-05-29T10:01:09;53.257858;44.511353;61.241650;;
79288;Laerm;68737;53.946;27.634;2023-05-29T10:03:39;57.640862;45.608345;69.044815;;
79288;Laerm;68737;53.946;27.634;2023-05-29T10:08:41;52.680077;42.946571;66.040344;;
79288;Laerm;68737;53.946;27.634;2023-05-29T10:11:09;55.493340;46.219131;64.457481;;
79288;Laerm;68737;53.946;27.634;2023-05-29T10:13:39;53.866875;44.344658;63.757233;;
79288;Laerm;68737;53.946;27.634;2023-05-29T10:16:11;55.703682;43.975983;68.336105;;
79288;Laerm;68737;53.946;27.634;2023-05-29T10:18:44;54.399132;44.746208;63.622234;;
79288;Laerm;68737;53.946;27.634;2023-05-29T10:21:11;53.967957;44.799202;64.327209;;
79288;Laerm;68737;53.946;27.634;2023-05-29T10:23:40;52.116791;42.241135;59.946018;;
79288;Laerm;68737;53.946;27.634;2023-05-29T10:28:40;52.242867;41.608376;61.434479;;
79288;Laerm;68737;53.946;27.634;2023-05-29T10:31:10;53.684982;43.271675;64.022003;;
79288;Laerm;68737;53.946;27.634;2023-05-29T10:33:47;53.030746;42.256851;61.459518;;
79288;Laerm;68737;53.946;27.634;2023-05-29T10:36:11;56.092361;41.897621;67.641388;;
79288;Laerm;68737;53.946;27.634;2023-05-29T10:43:39;56.462494;45.494621;66.898697;;
79288;Laerm;68737;53.946;27.634;2023-05-29T10:46:09;55.040115;45.027657;65.110229;;
79288;Laerm;68737;53.946;27.634;2023-05-29T10:48:40;53.270905;43.801216;63.060406;;
79288;Laerm;68737;53.946;27.634;2023-05-29T10:51:23;54.978325;44.768639;61.032356;;
79288;Laerm;68737;53.946;27.634;2023-05-29T10:53:39;54.657700;43.974747;67.194916;;
79288;Laerm;68737;53.946;27.634;2023-05-29T10:56:14;54.919060;43.626625;66.482208;;
79288;Laerm;68737;53.946;27.634;2023-05-29T10:58:39;52.302582;43.129753;59.974201;;
79288;Laerm;68737;53.946;27.634;2023-05-29T11:01:09;55.515190;45.460022;64.866669;;
79288;Laerm;68737;53.946;27.634;2023-05-29T11:03:39;54.779953;46.171761;62.073246;;
79288;Laerm;68737;53.946;27.634;2023-05-29T11:11:11;53.871574;44.385429;62.769455;;
79288;Laerm;68737;53.946;27.634;2023-05-29T11:13:39;54.532448;41.737312;66.311096;;
79288;Laerm;68737;53.946;27.634;2023-05-29T11:21:12;55.782982;45.998100;67.452057;;
79288;Laerm;68737;53.946;27.634;2023-05-29T11:23:39;52.298943;42.652763;61.712868;;
79288;Laerm;68737;53.946;27.634;2023-05-29T11:26:09;56.900169;42.522499;66.704956;;
79288;Laerm;68737;53.946;27.634;2023-05-29T11:28:39;53.658958;44.317787;65.258194;;
79288;Laerm;68737;53.946;27.634;2023-05-29T11:31:09;52.620766;43.502838;60.081486;;
79288;Laerm;68737;53.946;27.634;2023-05-29T11:33:40;52.385818;44.205292;59.985134;;
79288;Laerm;68737;53.946;27.634;2023-05-29T11:36:09;55.485634;46.251503;62.115646;;
79288;Laerm;68737;53.946;27.634;2023-05-29T11:38:41;53.822090;45.625969;65.792458;;
79288;Laerm;68737;53.946;27.634;2023-05-29T11:41:09;52.259850;44.307381;68.349960;;
79288;Laerm;68737;53.946;27.634;2023-05-29T11:43:39;54.380440;47.102585;63.415199;;
79288;Laerm;68737;53.946;27.634;2023-05-29T11:51:10;53.433464;44.468811;63.800751;;
79288;Laerm;68737;53.946;27.634;2023-05-29T11:53:40;54.447136;44.916588;62.370754;;
79288;Laerm;68737;53.946;27.634;2023-05-29T11:56:09;54.556976;42.242256;68.185349;;
79288;Laerm;68737;53.946;27.634;2023-05-29T11:58:40;51.615250;42.040169;64.105896;;
79288;Laerm;68737;53.946;27.634;2023-05-29T12:01:09;53.549866;42.009171;69.617516;;
79288;Laerm;68737;53.946;27.634;2023-05-29T12:03:40;57.136063;47.160065;67.449432;;
79288;Laerm;68737;53.946;27.634;2023-05-29T12:06:09;55.771782;46.533104;66.543167;;
79288;Laerm;68737;53.946;27.634;2023-05-29T12:08:39;56.346497;43.002281;68.673195;;
79288;Laerm;68737;53.946;27.634;2023-05-29T12:11:09;53.573669;44.828217;60.705162;;
79288;Laerm;68737;53.946;27.634;2023-05-29T12:13:39;55.871788;44.194832;67.130478;;
79288;Laerm;68737;53.946;27.634;2023-05-29T12:16:09;53.935585;44.698631;61.402416;;
79288;Laerm;68737;53.946;27.634;2023-05-29T12:18:39;55.189316;43.390884;64.239029;;
79288;Laerm;68737;53.946;27.634;2023-05-29T12:21:09;52.329582;43.340996;61.290062;;
79288;Laerm;68737;53.946;27.634;2023-05-29T12:23:39;52.043205;44.194359;59.174358;;
79288;Laerm;68737;53.946;27.634;2023-05-29T12:26:09;51.787315;41.117424;64.449799;;
79288;Laerm;68737;53.946;27.634;2023-05-29T12:31:09;51.732895;42.306900;68.192360;;
79288;Laerm;68737;53.946;27.634;2023-05-29T12:33:42;55.935860;42.612000;72.801132;;
79288;Laerm;68737;53.946;27.634;2023-05-29T12:36:11;53.748764;44.465187;63.075363;;
79288;Laerm;68737;53.946;27.634;2023-05-29T12:41:09;52.705719;40.752098;64.009361;;
79288;Laerm;68737;53.946;27.634;2023-05-29T12:43:39;52.665016;39.982010;62.234249;;